createdAt,value
2022-11-10T00:00:02.296Z,16.20
2022-11-10T00:01:02.284Z,13.20
2022-11-10T00:02:02.276Z,19.60
2022-11-10T00:03:02.285Z,16.60
2022-11-10T00:04:02.330Z,17.60
2022-11-10T00:05:02.237Z,20.50
2022-11-10T00:06:02.233Z,15.10
2022-11-10T00:07:02.292Z,16.20
2022-11-10T00:08:02.208Z,17.60
2022-11-10T00:09:02.201Z,15.80
2022-11-10T00:10:02.192Z,12.50
2022-11-10T00:11:02.180Z,19.10
2022-11-10T00:12:02.167Z,14.10
2022-11-10T00:13:02.153Z,12.10
2022-11-10T00:14:02.142Z,14.50
2022-11-10T00:15:02.133Z,16.10
2022-11-10T00:16:02.121Z,15.80
2022-11-10T00:17:02.110Z,14.80
2022-11-10T00:18:02.098Z,16.60
2022-11-10T00:19:02.110Z,16.70
2022-11-10T00:20:02.153Z,17.20
2022-11-10T00:21:02.065Z,16.40
2022-11-10T00:22:02.060Z,19.40
2022-11-10T00:23:02.050Z,11.80
2022-11-10T00:24:02.032Z,19.00
2022-11-10T00:25:02.019Z,20.90
2022-11-10T00:26:02.011Z,13.00
2022-11-10T00:27:01.998Z,16.50
2022-11-10T00:28:01.987Z,13.60
2022-11-10T00:29:01.984Z,16.90
2022-11-10T00:30:01.964Z,16.10
2022-11-10T00:31:01.956Z,19.50
2022-11-10T00:32:01.947Z,15.30
2022-11-10T00:33:01.935Z,18.70
2022-11-10T00:34:01.924Z,18.90
2022-11-10T00:35:01.936Z,12.40
2022-11-10T00:36:01.900Z,17.40
2022-11-10T00:37:01.888Z,15.00
2022-11-10T00:38:01.876Z,15.70
2022-11-10T00:39:01.866Z,14.10
2022-11-10T00:40:01.852Z,16.90
2022-11-10T00:41:01.846Z,19.90
2022-11-10T00:42:01.837Z,19.20
2022-11-10T00:43:01.821Z,21.20
2022-11-10T00:44:01.809Z,19.00
2022-11-10T00:45:01.805Z,18.40
2022-11-10T00:46:01.787Z,16.60
2022-11-10T00:47:01.781Z,16.80
2022-11-10T00:48:01.767Z,18.90
2022-11-10T00:49:01.756Z,20.90
2022-11-10T00:50:01.743Z,20.60
2022-11-10T00:51:01.762Z,21.80
2022-11-10T00:52:01.721Z,21.50
2022-11-10T00:53:01.717Z,18.60
2022-11-10T00:54:01.699Z,17.90
2022-11-10T00:55:01.690Z,22.60
2022-11-10T00:56:01.679Z,17.80
2022-11-10T00:57:01.671Z,24.20
2022-11-10T00:58:01.656Z,24.20
2022-11-10T00:59:01.646Z,17.70
2022-11-10T01:00:01.635Z,23.80
2022-11-10T01:01:01.671Z,21.30
2022-11-10T01:02:01.613Z,19.30
2022-11-10T01:03:01.605Z,20.70
2022-11-10T01:04:01.591Z,29.50
2022-11-10T01:05:01.584Z,22.00
2022-11-10T01:06:01.569Z,23.10
2022-11-10T01:07:01.765Z,21.80
2022-11-10T01:08:01.548Z,22.20
2022-11-10T01:09:01.541Z,20.90
2022-11-10T01:10:01.525Z,20.80
2022-11-10T01:11:01.514Z,29.40
2022-11-10T01:12:01.503Z,22.50
2022-11-10T01:13:01.498Z,25.60
2022-11-10T01:14:01.495Z,19.90
2022-11-10T01:15:01.473Z,28.10
2022-11-10T01:16:01.463Z,23.00
2022-11-10T01:17:01.449Z,24.70
2022-11-10T01:18:01.441Z,26.60
2022-11-10T01:19:01.427Z,23.70
2022-11-10T01:20:01.417Z,25.00
2022-11-10T01:21:01.408Z,29.40
2022-11-10T01:22:01.393Z,24.50
2022-11-10T01:23:01.405Z,27.60
2022-11-10T01:24:01.380Z,28.00
2022-11-10T01:25:01.361Z,29.50
2022-11-10T01:26:01.351Z,27.90
2022-11-10T01:27:01.337Z,25.70
2022-11-10T01:28:01.325Z,33.60
2022-11-10T01:29:01.315Z,32.00
2022-11-10T01:30:01.309Z,29.20
2022-11-10T01:31:01.298Z,30.60
2022-11-10T01:32:01.282Z,29.80
2022-11-10T01:33:01.273Z,34.00
2022-11-10T01:34:01.265Z,31.70
2022-11-10T01:35:01.256Z,28.30
2022-11-10T01:36:01.242Z,34.40
2022-11-10T01:37:01.234Z,30.90
2022-11-10T01:38:01.217Z,33.60
2022-11-10T01:39:01.235Z,33.00
2022-11-10T01:40:01.274Z,37.10
2022-11-10T01:41:01.188Z,34.30
2022-11-10T01:42:01.192Z,32.50
2022-11-10T01:43:01.201Z,32.10
2022-11-10T01:44:01.218Z,33.60
2022-11-10T01:45:01.257Z,32.80
2022-11-10T01:46:01.242Z,30.40
2022-11-10T01:47:01.351Z,31.00
2022-11-10T01:48:01.140Z,31.10
2022-11-10T01:49:01.098Z,32.90
2022-11-10T01:50:01.087Z,29.90
2022-11-10T01:51:01.074Z,39.60
2022-11-10T01:52:01.064Z,32.50
2022-11-10T01:53:01.055Z,33.30
2022-11-10T01:54:01.046Z,33.70
2022-11-10T01:55:01.058Z,37.80
2022-11-10T01:56:01.025Z,31.80
2022-11-10T01:57:01.012Z,33.80
2022-11-10T01:58:00.996Z,35.80
2022-11-10T01:59:00.992Z,29.30
2022-11-10T02:00:00.978Z,29.40
2022-11-10T02:01:01.011Z,29.20
2022-11-10T02:02:00.954Z,33.50
2022-11-10T02:03:00.947Z,34.80
2022-11-10T02:04:00.932Z,34.90
2022-11-10T02:05:00.922Z,35.70
2022-11-10T02:06:00.913Z,32.10
2022-11-10T02:07:00.937Z,31.00
2022-11-10T02:08:00.889Z,31.90
2022-11-10T02:09:00.883Z,33.70
2022-11-10T02:10:00.872Z,34.50
2022-11-10T02:11:00.879Z,39.70
2022-11-10T02:12:00.846Z,35.60
2022-11-10T02:13:00.834Z,35.20
2022-11-10T02:14:00.832Z,32.40
2022-11-10T02:15:00.815Z,33.90
2022-11-10T02:16:00.801Z,32.90
2022-11-10T02:17:00.790Z,38.20
2022-11-10T02:18:00.783Z,36.70
2022-11-10T02:19:00.769Z,30.30
2022-11-10T02:20:00.758Z,39.10
2022-11-10T02:21:00.749Z,36.40
2022-11-10T02:22:00.738Z,37.10
2022-11-10T02:23:00.728Z,34.30
2022-11-10T02:24:00.713Z,30.20
2022-11-10T02:25:00.709Z,36.60
2022-11-10T02:26:00.692Z,40.30
2022-11-10T02:27:00.704Z,41.80
2022-11-10T02:28:00.669Z,36.00
2022-11-10T02:29:00.659Z,36.20
2022-11-10T02:30:00.647Z,42.80
2022-11-10T02:31:00.640Z,40.50
2022-11-10T02:32:00.626Z,38.70
2022-11-10T02:33:00.615Z,42.20
2022-11-10T02:34:00.605Z,43.40
2022-11-10T02:35:00.594Z,44.80
2022-11-10T02:36:00.580Z,45.50
2022-11-10T02:37:00.572Z,42.90
2022-11-10T02:38:00.559Z,39.00
2022-11-10T02:39:00.550Z,42.70
2022-11-10T02:40:00.538Z,42.70
2022-11-10T02:41:00.528Z,41.00
2022-11-10T02:42:00.520Z,43.00
2022-11-10T02:43:00.528Z,48.10
2022-11-10T02:44:00.492Z,43.30
2022-11-10T02:45:00.500Z,46.30
2022-11-10T02:46:00.471Z,44.90
2022-11-10T02:47:00.461Z,43.80
2022-11-10T02:48:00.456Z,45.20
2022-11-10T02:49:00.441Z,45.10
2022-11-10T02:50:00.429Z,46.50
2022-11-10T02:51:00.520Z,46.00
2022-11-10T02:52:00.405Z,48.60
2022-11-10T02:53:00.398Z,56.00
2022-11-10T02:54:00.389Z,49.00
2022-11-10T02:55:00.374Z,51.20
2022-11-10T02:56:00.364Z,47.80
2022-11-10T02:57:00.350Z,49.70
2022-11-10T02:58:00.339Z,51.30
2022-11-10T02:59:00.352Z,58.20
2022-11-10T03:00:00.323Z,53.70
2022-11-10T03:01:00.365Z,51.10
2022-11-10T03:02:00.306Z,47.80
2022-11-10T03:03:00.304Z,51.00
2022-11-10T03:04:00.280Z,55.30
2022-11-10T03:05:00.270Z,47.10
2022-11-10T03:06:00.253Z,48.90
2022-11-10T03:07:00.361Z,44.00
2022-11-10T03:08:00.230Z,53.80
2022-11-10T03:09:00.224Z,50.10
2022-11-10T03:10:00.416Z,51.70
2022-11-10T03:11:00.199Z,46.50
2022-11-10T03:12:00.191Z,53.50
2022-11-10T03:13:00.211Z,49.40
2022-11-10T03:14:02.555Z,54.30
2022-11-10T03:15:00.181Z,47.20
2022-11-10T03:16:00.141Z,47.80
2022-11-10T03:17:00.137Z,46.50
2022-11-10T03:18:00.121Z,46.90
2022-11-10T03:19:00.118Z,52.10
2022-11-10T03:20:00.111Z,51.70
2022-11-10T03:21:00.098Z,55.10
2022-11-10T03:22:00.087Z,61.20
2022-11-10T03:23:00.105Z,48.60
2022-11-10T03:24:00.053Z,47.30
2022-11-10T03:25:00.044Z,49.00
2022-11-10T03:26:00.030Z,47.80
2022-11-10T03:27:00.023Z,47.80
2022-11-10T03:28:00.007Z,53.10
2022-11-10T03:29:00.007Z,59.70
2022-11-10T03:29:59.990Z,52.10
2022-11-10T03:31:00.004Z,47.10
2022-11-10T03:31:59.965Z,58.50
2022-11-10T03:32:59.955Z,57.60
2022-11-10T03:33:59.944Z,55.00
2022-11-10T03:34:59.936Z,48.10
2022-11-10T03:35:59.924Z,51.90
2022-11-10T03:36:59.913Z,43.50
2022-11-10T03:37:59.900Z,50.80
2022-11-10T03:38:59.893Z,44.60
2022-11-10T03:39:59.877Z,45.40
2022-11-10T03:41:59.858Z,47.60
2022-11-10T03:42:59.850Z,58.90
2022-11-10T03:43:59.837Z,46.10
2022-11-10T03:44:59.829Z,52.40
2022-11-10T03:45:59.816Z,44.70
2022-11-10T03:46:59.827Z,51.10
2022-11-10T03:47:59.793Z,55.70
2022-11-10T03:48:59.780Z,54.40
2022-11-10T03:49:59.769Z,61.40
2022-11-10T03:50:59.760Z,50.60
2022-11-10T03:51:59.746Z,46.30
2022-11-10T03:52:59.739Z,55.30
2022-11-10T03:53:59.735Z,47.10
2022-11-10T03:55:03.317Z,54.90
2022-11-10T03:55:59.702Z,46.30
2022-11-10T03:56:59.694Z,55.70
2022-11-10T03:57:59.680Z,44.90
2022-11-10T03:58:59.674Z,50.70
2022-11-10T03:59:59.664Z,49.30
2022-11-10T04:00:59.652Z,53.20
2022-11-10T04:01:59.668Z,52.00
2022-11-10T04:02:59.652Z,56.70
2022-11-10T04:03:59.613Z,50.30
2022-11-10T04:04:59.617Z,52.90
2022-11-10T04:05:59.594Z,55.40
2022-11-10T04:06:59.607Z,54.10
2022-11-10T04:07:59.570Z,49.30
2022-11-10T04:08:59.565Z,52.90
2022-11-10T04:09:59.555Z,50.10
2022-11-10T04:10:59.537Z,54.70
2022-11-10T04:11:59.527Z,60.30
2022-11-10T04:12:59.516Z,61.80
2022-11-10T04:13:59.502Z,62.20
2022-11-10T04:14:59.494Z,56.30
2022-11-10T04:15:59.482Z,57.30
2022-11-10T04:16:59.475Z,47.00
2022-11-10T04:17:59.460Z,54.00
2022-11-10T04:18:59.474Z,58.00
2022-11-10T04:19:59.439Z,46.60
2022-11-10T04:20:59.429Z,47.40
2022-11-10T04:21:59.419Z,52.00
2022-11-10T04:22:59.406Z,55.40
2022-11-10T04:23:59.395Z,52.60
2022-11-10T04:24:59.381Z,49.10
2022-11-10T04:25:59.371Z,44.00
2022-11-10T04:26:59.365Z,51.40
2022-11-10T04:27:59.355Z,54.30
2022-11-10T04:28:59.339Z,47.10
2022-11-10T04:29:59.330Z,62.00
2022-11-10T04:30:59.316Z,55.70
2022-11-10T04:31:59.310Z,56.60
2022-11-10T04:32:59.297Z,47.50
2022-11-10T04:33:59.281Z,50.40
2022-11-10T04:34:59.298Z,54.80
2022-11-10T04:35:59.261Z,57.70
2022-11-10T04:36:59.258Z,43.40
2022-11-10T04:37:59.240Z,48.70
2022-11-10T04:38:59.230Z,48.70
2022-11-10T04:39:59.219Z,59.50
2022-11-10T04:40:59.212Z,47.00
2022-11-10T04:42:02.655Z,51.70
2022-11-10T04:42:59.186Z,57.30
2022-11-10T04:43:59.175Z,55.40
2022-11-10T04:44:59.168Z,46.40
2022-11-10T04:45:59.157Z,48.20
2022-11-10T04:46:59.140Z,58.50
2022-11-10T04:47:59.133Z,42.40
2022-11-10T04:48:59.125Z,57.60
2022-11-10T04:49:59.107Z,52.60
2022-11-10T04:50:59.125Z,47.10
2022-11-10T04:51:59.166Z,53.50
2022-11-10T04:52:59.076Z,45.90
2022-11-10T04:53:59.067Z,54.40
2022-11-10T04:54:59.051Z,55.30
2022-11-10T04:55:59.045Z,64.30
2022-11-10T04:56:59.031Z,50.40
2022-11-10T04:57:59.021Z,51.00
2022-11-10T04:58:59.008Z,52.30
2022-11-10T04:59:59.000Z,48.40
2022-11-10T05:00:59.037Z,47.50
2022-11-10T05:01:58.977Z,51.30
2022-11-10T05:02:58.964Z,53.50
2022-11-10T05:03:58.954Z,60.90
2022-11-10T05:04:58.942Z,54.20
2022-11-10T05:05:58.935Z,53.50
2022-11-10T05:06:58.996Z,61.10
2022-11-10T05:07:58.911Z,55.60
2022-11-10T05:08:58.908Z,52.60
2022-11-10T05:09:58.894Z,42.20
2022-11-10T05:10:58.876Z,50.70
2022-11-10T05:11:58.865Z,46.10
2022-11-10T05:12:58.856Z,53.80
2022-11-10T05:13:58.847Z,62.80
2022-11-10T05:14:58.836Z,50.00
2022-11-10T05:15:58.823Z,58.20
2022-11-10T05:16:58.810Z,58.40
2022-11-10T05:17:58.807Z,44.70
2022-11-10T05:18:58.792Z,52.30
2022-11-10T05:19:58.781Z,54.30
2022-11-10T05:20:58.771Z,53.80
2022-11-10T05:21:58.764Z,50.70
2022-11-10T05:22:58.767Z,49.30
2022-11-10T05:23:58.737Z,47.50
2022-11-10T05:24:58.724Z,56.80
2022-11-10T05:25:58.713Z,52.90
2022-11-10T05:26:58.700Z,51.70
2022-11-10T05:27:58.701Z,57.70
2022-11-10T05:28:58.679Z,68.70
2022-11-10T05:29:58.670Z,60.90
2022-11-10T05:30:58.667Z,59.10
2022-11-10T05:31:58.651Z,56.20
2022-11-10T05:32:59.055Z,56.70
2022-11-10T05:33:58.634Z,51.60
2022-11-10T05:34:58.614Z,49.40
2022-11-10T05:35:58.604Z,54.20
2022-11-10T05:36:58.593Z,57.60
2022-11-10T05:37:58.582Z,61.60
2022-11-10T05:38:58.591Z,66.30
2022-11-10T05:39:58.561Z,57.80
2022-11-10T05:40:58.550Z,59.00
2022-11-10T05:41:58.540Z,58.80
2022-11-10T05:42:58.524Z,60.40
2022-11-10T05:43:58.516Z,56.60
2022-11-10T05:44:58.505Z,54.10
2022-11-10T05:45:58.495Z,65.80
2022-11-10T05:46:58.481Z,67.30
2022-11-10T05:47:58.471Z,59.60
2022-11-10T05:48:58.461Z,58.30
2022-11-10T05:49:58.451Z,65.60
2022-11-10T05:50:58.438Z,59.70
2022-11-10T05:51:58.428Z,70.40
2022-11-10T05:52:58.419Z,69.00
2022-11-10T05:53:58.406Z,63.70
2022-11-10T05:54:58.419Z,69.10
2022-11-10T05:55:58.387Z,61.70
2022-11-10T05:56:58.375Z,64.10
2022-11-10T05:57:58.363Z,68.90
2022-11-10T05:58:58.351Z,71.50
2022-11-10T05:59:58.343Z,68.60
2022-11-10T06:00:58.333Z,67.20
2022-11-10T06:01:58.319Z,79.90
2022-11-10T06:02:58.308Z,63.20
2022-11-10T06:03:58.367Z,70.40
2022-11-10T06:04:58.286Z,68.60
2022-11-10T06:05:58.274Z,87.70
2022-11-10T06:06:58.346Z,71.00
2022-11-10T06:07:58.255Z,66.80
2022-11-10T06:08:58.243Z,59.30
2022-11-10T06:09:58.232Z,65.80
2022-11-10T06:10:58.252Z,80.10
2022-11-10T06:11:58.211Z,63.80
2022-11-10T06:12:58.204Z,63.50
2022-11-10T06:13:58.187Z,61.60
2022-11-10T06:14:58.209Z,68.50
2022-11-10T06:15:58.166Z,76.60
2022-11-10T06:16:58.152Z,68.30
2022-11-10T06:17:58.144Z,65.90
2022-11-10T06:18:58.130Z,66.60
2022-11-10T06:19:58.120Z,68.70
2022-11-10T06:20:58.109Z,66.40
2022-11-10T06:22:03.686Z,69.00
2022-11-10T06:22:58.090Z,65.00
2022-11-10T06:23:58.327Z,73.50
2022-11-10T06:24:58.066Z,67.40
2022-11-10T06:25:58.056Z,71.60
2022-11-10T06:26:58.065Z,77.80
2022-11-10T06:27:58.033Z,62.60
2022-11-10T06:28:58.025Z,78.80
2022-11-10T06:29:58.009Z,68.60
2022-11-10T06:30:58.002Z,67.50
2022-11-10T06:31:57.989Z,69.80
2022-11-10T06:32:57.982Z,82.70
2022-11-10T06:33:57.968Z,80.20
2022-11-10T06:35:00.659Z,77.30
2022-11-10T06:35:57.945Z,67.40
2022-11-10T06:36:57.933Z,76.40
2022-11-10T06:37:57.925Z,84.10
2022-11-10T06:38:57.909Z,74.70
2022-11-10T06:39:57.901Z,82.00
2022-11-10T06:40:57.889Z,70.10
2022-11-10T06:41:57.879Z,74.70
2022-11-10T06:42:57.890Z,84.60
2022-11-10T06:43:57.861Z,92.30
2022-11-10T06:44:57.844Z,83.70
2022-11-10T06:45:57.838Z,77.40
2022-11-10T06:46:57.821Z,95.10
2022-11-10T06:47:57.813Z,76.60
2022-11-10T06:48:57.803Z,83.80
2022-11-10T06:49:57.790Z,75.20
2022-11-10T06:50:57.779Z,101.40
2022-11-10T06:51:57.772Z,77.90
2022-11-10T06:52:57.765Z,86.80
2022-11-10T06:53:57.747Z,90.90
2022-11-10T06:54:57.735Z,78.50
2022-11-10T06:55:57.726Z,83.90
2022-11-10T06:56:57.715Z,82.30
2022-11-10T06:57:57.707Z,84.90
2022-11-10T06:58:57.717Z,93.20
2022-11-10T06:59:57.747Z,81.40
2022-11-10T07:00:57.683Z,97.80
2022-11-10T07:01:57.677Z,83.60
2022-11-10T07:02:57.647Z,88.80
2022-11-10T07:04:18.758Z,85.20
2022-11-10T07:04:58.651Z,96.00
2022-11-10T07:05:57.621Z,88.90
2022-11-10T07:06:57.640Z,86.90
2022-11-10T07:07:57.595Z,77.00
2022-11-10T07:08:57.582Z,84.00
2022-11-10T07:09:58.912Z,75.30
2022-11-10T07:10:57.560Z,91.00
2022-11-10T07:11:57.576Z,100.70
2022-11-10T07:12:57.548Z,79.00
2022-11-10T07:13:57.526Z,80.00
2022-11-10T07:14:57.536Z,76.20
2022-11-10T07:15:57.511Z,97.90
2022-11-10T07:16:57.491Z,75.10
2022-11-10T07:17:57.481Z,79.60
2022-11-10T07:18:57.474Z,75.10
2022-11-10T07:19:57.460Z,72.40
2022-11-10T07:20:57.450Z,67.80
2022-11-10T07:21:57.440Z,82.80
2022-11-10T07:22:57.434Z,88.40
2022-11-10T07:23:57.418Z,82.90
2022-11-10T07:24:57.403Z,77.80
2022-11-10T07:25:57.391Z,68.00
2022-11-10T07:26:57.377Z,70.40
2022-11-10T07:27:57.375Z,63.10
2022-11-10T07:28:57.359Z,72.80
2022-11-10T07:29:57.346Z,75.60
2022-11-10T07:30:57.360Z,78.00
2022-11-10T07:31:57.325Z,60.80
2022-11-10T07:32:57.322Z,62.30
2022-11-10T07:33:57.302Z,65.10
2022-11-10T07:34:57.290Z,68.00
2022-11-10T07:35:57.281Z,61.40
2022-11-10T07:36:57.274Z,72.90
2022-11-10T07:37:57.259Z,61.50
2022-11-10T07:38:57.249Z,68.30
2022-11-10T07:39:57.234Z,70.40
2022-11-10T07:40:57.224Z,62.20
2022-11-10T07:41:57.216Z,65.10
2022-11-10T07:42:57.214Z,60.30
2022-11-10T07:43:57.240Z,60.70
2022-11-10T07:44:57.179Z,56.60
2022-11-10T07:45:57.169Z,61.20
2022-11-10T07:46:57.184Z,77.90
2022-11-10T07:47:57.146Z,61.90
2022-11-10T07:48:57.136Z,53.70
2022-11-10T07:49:57.125Z,60.00
2022-11-10T07:50:57.116Z,63.70
2022-11-10T07:51:57.100Z,59.40
2022-11-10T07:52:57.089Z,68.90
2022-11-10T07:53:57.084Z,62.40
2022-11-10T07:54:57.068Z,60.70
2022-11-10T07:55:57.057Z,61.40
2022-11-10T07:56:57.044Z,63.30
2022-11-10T07:57:57.040Z,60.40
2022-11-10T07:58:57.027Z,62.30
2022-11-10T07:59:58.196Z,67.70
2022-11-10T08:00:57.000Z,58.90
2022-11-10T08:01:57.079Z,54.00
2022-11-10T08:02:56.999Z,60.10
2022-11-10T08:03:56.968Z,60.60
2022-11-10T08:04:56.954Z,57.30
2022-11-10T08:05:56.948Z,57.60
2022-11-10T08:06:57.125Z,54.20
2022-11-10T08:07:57.006Z,52.60
2022-11-10T08:08:56.917Z,52.00
2022-11-10T08:09:56.901Z,58.30
2022-11-10T08:10:56.889Z,47.90
2022-11-10T08:11:56.877Z,47.70
2022-11-10T08:12:56.866Z,55.10
2022-11-10T08:13:56.864Z,52.70
2022-11-10T08:14:56.858Z,51.50
2022-11-10T08:15:56.836Z,47.40
2022-11-10T08:16:56.823Z,46.00
2022-11-10T08:17:56.813Z,48.70
2022-11-10T08:18:56.825Z,48.00
2022-11-10T08:19:56.791Z,50.70
2022-11-10T08:20:56.782Z,43.00
2022-11-10T08:21:56.768Z,44.70
2022-11-10T08:22:56.756Z,45.00
2022-11-10T08:23:56.749Z,53.30
2022-11-10T08:24:56.733Z,53.80
2022-11-10T08:25:56.726Z,51.70
2022-11-10T08:26:56.713Z,42.20
2022-11-10T08:27:56.701Z,44.80
2022-11-10T08:28:56.687Z,45.00
2022-11-10T08:29:56.688Z,46.70
2022-11-10T08:30:59.383Z,46.50
2022-11-10T08:31:56.719Z,45.80
2022-11-10T08:32:56.661Z,46.60
2022-11-10T08:33:56.633Z,41.10
2022-11-10T08:34:56.647Z,38.20
2022-11-10T08:35:56.612Z,41.80
2022-11-10T08:36:56.598Z,41.60
2022-11-10T08:37:56.599Z,40.60
2022-11-10T08:38:56.576Z,39.50
2022-11-10T08:39:56.567Z,39.70
2022-11-10T08:40:56.565Z,40.90
2022-11-10T08:41:56.551Z,41.30
2022-11-10T08:42:56.531Z,42.50
2022-11-10T08:43:56.525Z,37.10
2022-11-10T08:44:56.533Z,41.00
2022-11-10T08:45:56.526Z,37.60
2022-11-10T08:46:56.581Z,38.30
2022-11-10T08:47:56.535Z,41.00
2022-11-10T08:48:56.644Z,41.20
2022-11-10T08:49:56.547Z,40.10
2022-11-10T08:50:56.609Z,40.60
2022-11-10T08:51:56.595Z,43.40
2022-11-10T08:52:56.564Z,45.10
2022-11-10T08:53:56.414Z,38.90
2022-11-10T08:54:56.399Z,44.30
2022-11-10T08:55:56.394Z,37.00
2022-11-10T08:56:56.382Z,39.50
2022-11-10T08:57:56.394Z,39.20
2022-11-10T08:58:56.355Z,32.00
2022-11-10T08:59:56.351Z,35.90
2022-11-10T09:00:56.344Z,30.90
2022-11-10T09:01:56.324Z,34.90
2022-11-10T09:02:56.368Z,36.00
2022-11-10T09:03:56.304Z,30.50
2022-11-10T09:04:56.398Z,29.10
2022-11-10T09:05:58.525Z,28.90
2022-11-10T09:06:56.336Z,32.20
2022-11-10T09:07:56.260Z,31.80
2022-11-10T09:08:56.266Z,31.30
2022-11-10T09:10:06.685Z,32.30
2022-11-10T09:10:57.261Z,33.70
2022-11-10T09:11:56.213Z,30.70
2022-11-10T09:12:56.214Z,27.10
2022-11-10T09:13:56.198Z,29.60
2022-11-10T09:14:56.182Z,26.90
2022-11-10T09:15:56.173Z,24.80
2022-11-10T09:16:56.160Z,28.80
2022-11-10T09:17:56.147Z,24.90
2022-11-10T09:18:56.142Z,34.70
2022-11-10T09:19:56.195Z,30.20
2022-11-10T09:20:56.121Z,25.60
2022-11-10T09:21:56.110Z,29.10
2022-11-10T09:22:56.118Z,28.80
2022-11-10T09:23:56.083Z,24.80
2022-11-10T09:24:56.073Z,31.00
2022-11-10T09:25:56.058Z,24.90
2022-11-10T09:26:56.058Z,26.90
2022-11-10T09:27:56.059Z,27.90
2022-11-10T09:28:56.028Z,24.90
2022-11-10T09:29:56.015Z,23.30
2022-11-10T09:30:56.008Z,23.00
2022-11-10T09:31:55.995Z,26.40
2022-11-10T09:32:55.984Z,26.70
2022-11-10T09:33:55.971Z,24.60
2022-11-10T09:34:55.961Z,27.80
2022-11-10T09:35:55.947Z,23.90
2022-11-10T09:36:55.938Z,28.10
2022-11-10T09:37:55.923Z,24.30
2022-11-10T09:38:55.944Z,26.20
2022-11-10T09:40:01.126Z,22.90
2022-11-10T09:40:55.895Z,21.80
2022-11-10T09:41:55.884Z,25.50
2022-11-10T09:42:55.874Z,22.80
2022-11-10T09:43:55.868Z,22.40
2022-11-10T09:44:55.855Z,23.80
2022-11-10T09:45:55.842Z,19.30
2022-11-10T09:46:55.833Z,23.10
2022-11-10T09:47:57.790Z,22.40
2022-11-10T09:48:55.809Z,21.80
2022-11-10T09:49:55.797Z,27.80
2022-11-10T09:50:55.792Z,25.00
2022-11-10T09:51:55.819Z,22.10
2022-11-10T09:52:55.766Z,22.60
2022-11-10T09:53:55.753Z,24.90
2022-11-10T09:54:55.764Z,21.50
2022-11-10T09:55:55.729Z,24.30
2022-11-10T09:56:55.723Z,18.30
2022-11-10T09:57:55.708Z,21.80
2022-11-10T09:58:55.699Z,20.40
2022-11-10T09:59:55.690Z,19.50
2022-11-10T10:00:55.676Z,25.60
2022-11-10T10:01:55.706Z,22.70
2022-11-10T10:02:55.655Z,17.50
2022-11-10T10:03:55.708Z,23.70
2022-11-10T10:04:55.651Z,19.50
2022-11-10T10:05:55.622Z,20.40
2022-11-10T10:07:10.175Z,18.60
2022-11-10T10:07:55.680Z,25.70
2022-11-10T10:08:55.590Z,21.90
2022-11-10T10:09:55.579Z,21.40
2022-11-10T10:10:55.601Z,20.50
2022-11-10T10:11:55.563Z,21.20
2022-11-10T10:12:55.546Z,27.60
2022-11-10T10:13:55.537Z,18.60
2022-11-10T10:14:55.523Z,21.20
2022-11-10T10:15:55.514Z,24.10
2022-11-10T10:16:55.522Z,18.50
2022-11-10T10:17:55.489Z,20.80
2022-11-10T10:18:55.482Z,21.90
2022-11-10T10:19:55.470Z,20.00
2022-11-10T10:20:55.457Z,23.20
2022-11-10T10:21:55.445Z,19.90
2022-11-10T10:22:55.434Z,19.70
2022-11-10T10:24:15.221Z,19.50
2022-11-10T10:24:56.438Z,24.50
2022-11-10T10:25:55.439Z,21.90
2022-11-10T10:26:55.416Z,18.30
2022-11-10T10:27:55.395Z,21.20
2022-11-10T10:28:55.371Z,21.60
2022-11-10T10:29:55.362Z,16.50
2022-11-10T10:30:55.345Z,23.70
2022-11-10T10:31:55.335Z,16.40
2022-11-10T10:32:55.324Z,22.60
2022-11-10T10:33:55.315Z,22.00
2022-11-10T10:34:55.304Z,24.60
2022-11-10T10:35:55.297Z,24.10
2022-11-10T10:36:55.287Z,22.40
2022-11-10T10:37:55.275Z,22.50
2022-11-10T10:38:55.271Z,29.50
2022-11-10T10:39:55.261Z,18.20
2022-11-10T10:40:55.240Z,21.10
2022-11-10T10:41:55.231Z,20.50
2022-11-10T10:42:55.251Z,17.80
2022-11-10T10:43:55.204Z,25.00
2022-11-10T10:44:55.197Z,18.20
2022-11-10T10:45:55.185Z,21.40
2022-11-10T10:46:55.176Z,25.10
2022-11-10T10:47:55.163Z,21.50
2022-11-10T10:49:22.186Z,23.30
2022-11-10T10:49:55.244Z,18.40
2022-11-10T10:50:55.156Z,16.90
2022-11-10T10:51:55.119Z,20.20
2022-11-10T10:52:55.110Z,23.40
2022-11-10T10:53:55.096Z,22.60
2022-11-10T10:54:55.087Z,21.70
2022-11-10T10:55:55.072Z,22.00
2022-11-10T10:56:55.066Z,16.70
2022-11-10T10:57:55.051Z,24.50
2022-11-10T10:58:55.064Z,19.10
2022-11-10T10:59:55.159Z,23.50
2022-11-10T11:00:55.036Z,21.30
2022-11-10T11:01:55.140Z,20.80
2022-11-10T11:02:56.511Z,19.10
2022-11-10T11:03:54.985Z,17.40
2022-11-10T11:04:54.975Z,20.20
2022-11-10T11:05:54.963Z,19.40
2022-11-10T11:06:55.005Z,23.00
2022-11-10T11:07:54.943Z,21.60
2022-11-10T11:08:59.247Z,17.80
2022-11-10T11:09:54.920Z,19.70
2022-11-10T11:10:54.911Z,21.10
2022-11-10T11:11:54.898Z,21.90
2022-11-10T11:12:54.995Z,20.70
2022-11-10T11:13:55.156Z,21.60
2022-11-10T11:14:54.899Z,18.70
2022-11-10T11:15:54.852Z,17.00
2022-11-10T11:16:54.847Z,20.20
2022-11-10T11:17:54.835Z,23.80
2022-11-10T11:18:54.828Z,26.10
2022-11-10T11:19:59.845Z,17.20
2022-11-10T11:20:54.803Z,19.00
2022-11-10T11:21:54.789Z,18.90
2022-11-10T11:22:54.778Z,22.40
2022-11-10T11:23:54.966Z,18.90
2022-11-10T11:24:54.755Z,18.80
2022-11-10T11:25:54.933Z,19.30
2022-11-10T11:26:54.736Z,21.50
2022-11-10T11:27:54.722Z,17.10
2022-11-10T11:28:54.722Z,21.10
2022-11-10T11:29:54.702Z,19.90
2022-11-10T11:30:54.716Z,15.60
2022-11-10T11:31:54.680Z,20.50
2022-11-10T11:32:54.667Z,17.80
2022-11-10T11:33:54.664Z,15.30
2022-11-10T11:34:54.646Z,23.50
2022-11-10T11:35:54.632Z,20.40
2022-11-10T11:36:54.627Z,20.70
2022-11-10T11:37:54.610Z,19.80
2022-11-10T11:38:54.608Z,18.90
2022-11-10T11:39:54.590Z,20.10
2022-11-10T11:40:54.581Z,18.20
2022-11-10T11:41:54.568Z,19.60
2022-11-10T11:42:54.567Z,19.70
2022-11-10T11:43:54.550Z,16.10
2022-11-10T11:44:54.542Z,16.30
2022-11-10T11:45:54.625Z,21.90
2022-11-10T11:46:54.547Z,23.50
2022-11-10T11:47:54.497Z,20.60
2022-11-10T11:48:54.494Z,20.70
2022-11-10T11:49:54.667Z,18.20
2022-11-10T11:50:54.957Z,22.90
2022-11-10T11:51:54.455Z,21.00
2022-11-10T11:52:54.449Z,20.60
2022-11-10T11:53:54.435Z,17.20
2022-11-10T11:54:54.418Z,18.60
2022-11-10T11:55:54.409Z,18.30
2022-11-10T11:56:54.399Z,18.00
2022-11-10T11:57:54.385Z,20.20
2022-11-10T11:58:54.382Z,20.70
2022-11-10T11:59:54.390Z,17.00
2022-11-10T12:00:54.355Z,18.70
2022-11-10T12:01:54.339Z,23.30
2022-11-10T12:02:54.470Z,20.60
2022-11-10T12:03:54.471Z,21.00
2022-11-10T12:04:54.397Z,22.00
2022-11-10T12:05:54.318Z,18.20
2022-11-10T12:06:54.822Z,18.10
2022-11-10T12:07:54.294Z,18.30
2022-11-10T12:08:54.285Z,17.40
2022-11-10T12:09:54.256Z,19.60
2022-11-10T12:10:54.243Z,17.90
2022-11-10T12:11:54.535Z,19.30
2022-11-10T12:12:54.221Z,16.40
2022-11-10T12:13:54.224Z,15.90
2022-11-10T12:14:54.200Z,22.40
2022-11-10T12:15:54.185Z,14.70
2022-11-10T12:16:54.175Z,16.10
2022-11-10T12:17:54.165Z,17.50
2022-11-10T12:18:54.176Z,26.80
2022-11-10T12:19:54.142Z,16.30
2022-11-10T12:20:54.134Z,21.70
2022-11-10T12:21:54.124Z,16.70
2022-11-10T12:22:54.112Z,19.10
2022-11-10T12:23:54.105Z,23.40
2022-11-10T12:24:54.090Z,16.40
2022-11-10T12:25:54.080Z,20.20
2022-11-10T12:26:54.072Z,18.20
2022-11-10T12:27:54.054Z,18.60
2022-11-10T12:28:54.050Z,19.70
2022-11-10T12:29:54.040Z,20.20
2022-11-10T12:30:57.692Z,15.30
2022-11-10T12:31:54.029Z,21.20
2022-11-10T12:32:54.021Z,15.70
2022-11-10T12:33:53.990Z,27.30
2022-11-10T12:34:54.008Z,17.40
2022-11-10T12:35:53.967Z,19.90
2022-11-10T12:36:53.957Z,19.10
2022-11-10T12:37:53.945Z,17.30
2022-11-10T12:38:59.562Z,16.60
2022-11-10T12:39:53.928Z,13.30
2022-11-10T12:40:53.917Z,20.70
2022-11-10T12:41:53.905Z,20.60
2022-11-10T12:42:53.896Z,20.40
2022-11-10T12:43:53.908Z,17.60
2022-11-10T12:44:53.872Z,15.70
2022-11-10T12:45:53.869Z,16.30
2022-11-10T12:46:53.859Z,18.10
2022-11-10T12:47:53.848Z,16.50
2022-11-10T12:48:53.830Z,17.50
2022-11-10T12:49:53.819Z,19.10
2022-11-10T12:50:53.839Z,20.20
2022-11-10T12:51:53.803Z,19.80
2022-11-10T12:52:53.803Z,17.40